createdAt,value
2023-04-02T00:00:37.534Z,101411.81
2023-04-02T00:03:08.671Z,101422.00
2023-04-02T00:05:51.723Z,101425.38
2023-04-02T00:08:38.955Z,101437.25
2023-04-02T00:11:06.810Z,101430.50
2023-04-02T00:13:41.199Z,101429.63
2023-04-02T00:16:12.843Z,101438.97
2023-04-02T00:18:45.587Z,101433.03
2023-04-02T00:21:23.951Z,101444.06
2023-04-02T00:23:50.690Z,101443.19
2023-04-02T00:26:42.892Z,101446.63
2023-04-02T00:29:11.567Z,101445.75
2023-04-02T00:31:41.016Z,101450.84
2023-04-02T00:34:13.850Z,101455.06
2023-04-02T00:36:44.051Z,101463.56
2023-04-02T00:39:28.464Z,101463.53
2023-04-02T00:42:06.471Z,101473.72
2023-04-02T00:44:37.861Z,101478.81
2023-04-02T00:47:14.981Z,101490.69
2023-04-02T00:49:41.970Z,101488.13
2023-04-02T00:52:15.063Z,101497.47
2023-04-02T00:54:48.124Z,101500.00
2023-04-02T00:57:20.244Z,101501.69
2023-04-02T01:00:24.071Z,101507.63
2023-04-02T01:03:13.026Z,101517.78
2023-04-02T01:05:42.526Z,101522.88
2023-04-02T01:08:22.328Z,101529.63
2023-04-02T01:11:13.595Z,101533.88
2023-04-02T01:13:53.449Z,101533.88
2023-04-02T01:16:46.268Z,101544.03
2023-04-02T01:19:35.565Z,101541.50
2023-04-02T01:22:20.613Z,101551.66
2023-04-02T01:24:47.825Z,101558.44
2023-04-02T01:27:23.384Z,101557.56
2023-04-02T01:29:57.721Z,101556.75
2023-04-02T01:32:27.143Z,101561.81
2023-04-02T01:34:55.811Z,101559.25
2023-04-02T01:37:44.808Z,101570.28
2023-04-02T01:40:49.531Z,101577.91
2023-04-02T01:43:52.879Z,101577.91
2023-04-02T01:46:34.484Z,101582.13
2023-04-02T01:49:10.287Z,101587.22
2023-04-02T01:51:41.871Z,101593.97
2023-04-02T01:54:08.949Z,101595.69
2023-04-02T01:56:36.099Z,101596.53
2023-04-02T01:59:05.787Z,101607.53
2023-04-02T02:01:43.397Z,101606.66
2023-04-02T02:04:14.441Z,101616.00
2023-04-02T02:06:41.767Z,101628.69
2023-04-02T02:09:17.782Z,101628.69
2023-04-02T02:11:44.217Z,101638.88
2023-04-02T02:14:25.085Z,101638.84
2023-04-02T02:16:56.596Z,101638.84
2023-04-02T02:19:32.798Z,101650.66
2023-04-02T02:22:29.633Z,101652.34
2023-04-02T02:24:59.279Z,101654.88
2023-04-02T02:27:26.024Z,101665.88
2023-04-02T02:30:00.447Z,101670.91
2023-04-02T02:32:30.901Z,101659.00
2023-04-02T02:35:21.326Z,101665.78
2023-04-02T02:37:55.240Z,101672.50
2023-04-02T02:40:29.558Z,101677.59
2023-04-02T02:43:00.713Z,101682.63
2023-04-02T02:45:31.270Z,101672.44
2023-04-02T02:47:59.413Z,101691.88
2023-04-02T02:50:31.669Z,101696.94
2023-04-02T02:53:00.894Z,101692.69
2023-04-02T02:55:39.127Z,101702.00
2023-04-02T02:58:15.878Z,101719.75
2023-04-02T03:00:42.701Z,101716.38
2023-04-02T03:03:18.010Z,101723.16
2023-04-02T03:05:49.806Z,101727.41
2023-04-02T03:08:40.321Z,101729.91
2023-04-02T03:11:23.078Z,101740.88
2023-04-02T03:13:52.341Z,101751.03
2023-04-02T03:16:28.428Z,101745.94
2023-04-02T03:19:20.565Z,101762.88
2023-04-02T03:22:03.273Z,101760.28
2023-04-02T03:24:39.687Z,101761.16
2023-04-02T03:27:09.125Z,101778.09
2023-04-02T03:29:41.407Z,101780.56
2023-04-02T03:32:16.708Z,101787.34
2023-04-02T03:34:51.294Z,101791.53
2023-04-02T03:37:42.392Z,101797.44
2023-04-02T03:40:22.532Z,101800.00
2023-04-02T03:42:53.447Z,101813.53
2023-04-02T03:45:29.637Z,101805.88
2023-04-02T03:48:18.038Z,101821.06
2023-04-02T03:50:52.143Z,101829.50
2023-04-02T03:53:18.804Z,101826.97
2023-04-02T03:55:45.552Z,101840.47
2023-04-02T03:58:21.957Z,101839.63
2023-04-02T04:01:03.175Z,101844.72
2023-04-02T04:03:38.169Z,101851.47
2023-04-02T04:06:34.821Z,101858.25
2023-04-02T04:09:11.480Z,101861.69
2023-04-02T04:11:45.622Z,101860.78
2023-04-02T04:14:20.441Z,101871.75
2023-04-02T04:16:53.494Z,101876.81
2023-04-02T04:19:32.611Z,101882.69
2023-04-02T04:22:19.126Z,101898.72
2023-04-02T04:24:47.792Z,101896.13
2023-04-02T04:27:46.402Z,101899.50
2023-04-02T04:30:24.658Z,101905.41
2023-04-02T04:32:58.768Z,101909.66
2023-04-02T04:35:31.145Z,101917.22
2023-04-02T04:38:27.807Z,101930.66
2023-04-02T04:41:01.982Z,101933.13
2023-04-02T04:43:40.588Z,101936.44
2023-04-02T04:46:12.517Z,101948.19
2023-04-02T04:48:48.888Z,101949.91
2023-04-02T04:51:45.223Z,101963.41
2023-04-02T04:54:14.178Z,101960.84
2023-04-02T04:56:47.319Z,101967.66
2023-04-02T04:59:21.934Z,101975.22
2023-04-02T05:02:12.823Z,101976.84
2023-04-02T05:04:48.262Z,101980.97
2023-04-02T05:07:23.025Z,101978.34
2023-04-02T05:10:01.292Z,101995.13
2023-04-02T05:12:42.206Z,102011.03
2023-04-02T05:15:27.549Z,102017.63
2023-04-02T05:17:59.583Z,102019.22
2023-04-02T05:20:34.943Z,102028.38
2023-04-02T05:23:15.354Z,102032.34
2023-04-02T05:26:11.429Z,102045.75
2023-04-02T05:28:40.837Z,102055.72
2023-04-02T05:31:12.490Z,102056.47
2023-04-02T05:33:40.055Z,102064.09
2023-04-02T05:36:18.308Z,102065.66
2023-04-02T05:38:47.597Z,102077.44
2023-04-02T05:41:27.371Z,102077.34
2023-04-02T05:44:09.099Z,102078.06
2023-04-02T05:46:45.731Z,102084.59
2023-04-02T05:49:26.042Z,102097.13
2023-04-02T05:51:57.606Z,102099.47
2023-04-02T05:54:31.137Z,102100.22
2023-04-02T05:57:07.451Z,102119.59
2023-04-02T05:59:38.930Z,102115.31
2023-04-02T06:02:27.805Z,102126.19
2023-04-02T06:04:59.751Z,102137.94
2023-04-02T06:07:32.148Z,102137.00
2023-04-02T06:10:15.401Z,102147.97
2023-04-02T06:12:51.386Z,102156.41
2023-04-02T06:15:23.620Z,102159.72
2023-04-02T06:18:06.337Z,102176.50
2023-04-02T06:20:33.015Z,102181.63
2023-04-02T06:23:11.595Z,102187.59
2023-04-02T06:26:03.454Z,102193.56
2023-04-02T06:28:47.861Z,102192.06
2023-04-02T06:31:26.018Z,102199.72
2023-04-02T06:33:55.042Z,102198.88
2023-04-02T06:36:23.951Z,102211.66
2023-04-02T06:38:52.127Z,102214.25
2023-04-02T06:41:23.527Z,102217.72
2023-04-02T06:44:02.030Z,102218.63
2023-04-02T06:46:36.173Z,102223.84
2023-04-02T06:49:13.095Z,102234.13
2023-04-02T06:51:40.912Z,102228.34
2023-04-02T06:54:14.296Z,102235.03
2023-04-02T06:56:48.142Z,102237.75
2023-04-02T06:59:16.361Z,102242.78
2023-04-02T07:02:00.158Z,102256.22
2023-04-02T07:04:27.756Z,102258.72
2023-04-02T07:06:54.239Z,102273.09
2023-04-02T07:09:28.001Z,102279.03
2023-04-02T07:11:54.398Z,102281.63
2023-04-02T07:14:20.920Z,102294.31
2023-04-02T07:16:47.447Z,102302.75
2023-04-02T07:19:22.789Z,102295.16
2023-04-02T07:21:49.369Z,102307.19
2023-04-02T07:24:15.940Z,102310.59
2023-04-02T07:26:42.903Z,102313.25
2023-04-02T07:29:14.728Z,102320.03
2023-04-02T07:31:41.315Z,102325.94
2023-04-02T07:34:08.114Z,102338.63
2023-04-02T07:36:35.402Z,102337.88
2023-04-02T07:39:02.267Z,102336.13
2023-04-02T07:41:28.767Z,102340.31
2023-04-02T07:43:55.419Z,102350.47
2023-04-02T07:46:22.337Z,102353.91
2023-04-02T07:48:48.829Z,102354.72
2023-04-02T07:51:23.051Z,102354.00
2023-04-02T07:53:51.047Z,102359.94
2023-04-02T07:56:19.862Z,102359.84
2023-04-02T07:58:46.792Z,102362.41
2023-04-02T08:01:25.695Z,102364.94
2023-04-02T08:03:54.662Z,102365.84
2023-04-02T08:06:22.503Z,102371.84
2023-04-02T08:08:49.216Z,102373.78
2023-04-02T08:11:16.008Z,102380.63
2023-04-02T08:13:42.970Z,102382.44
2023-04-02T08:16:09.692Z,102384.91
2023-04-02T08:18:36.592Z,102394.00
2023-04-02T08:21:06.740Z,102396.50
2023-04-02T08:23:33.319Z,102398.16
2023-04-02T08:25:59.833Z,102399.84
2023-04-02T08:28:26.415Z,102416.09
2023-04-02T08:30:53.165Z,102420.28
2023-04-02T08:33:19.880Z,102428.00
2023-04-02T08:35:48.205Z,102433.94
2023-04-02T08:38:16.163Z,102433.81
2023-04-02T08:40:45.563Z,102440.50
2023-04-02T08:43:14.971Z,102444.91
2023-04-02T08:46:08.528Z,102444.34
2023-04-02T08:48:40.214Z,102446.06
2023-04-02T08:51:15.001Z,102457.75
2023-04-02T08:53:42.159Z,102461.94
2023-04-02T08:56:17.729Z,102469.66
2023-04-02T08:58:51.188Z,102471.31
2023-04-02T09:01:34.463Z,102478.06
2023-04-02T09:04:05.576Z,102473.91
2023-04-02T09:06:33.432Z,102486.84
2023-04-02T09:09:00.296Z,102490.22
2023-04-02T09:11:41.196Z,102486.84
2023-04-02T09:14:17.966Z,102493.72
2023-04-02T09:16:49.423Z,102497.19
2023-04-02T09:19:20.006Z,102504.84
2023-04-02T09:21:56.952Z,102501.38
2023-04-02T09:24:23.346Z,102513.09
2023-04-02T09:26:49.796Z,102510.66
2023-04-02T09:29:31.339Z,102518.66
2023-04-02T09:32:25.603Z,102529.13
2023-04-02T09:35:18.357Z,102531.06
2023-04-02T09:38:12.602Z,102538.81
2023-04-02T09:41:06.882Z,102541.38
2023-04-02T09:43:35.770Z,102547.16
2023-04-02T09:46:21.282Z,102550.59
2023-04-02T09:49:01.224Z,102543.75
2023-04-02T09:51:36.496Z,102533.47
2023-04-02T09:54:03.077Z,102538.50
2023-04-02T09:56:40.434Z,102545.28
2023-04-02T09:59:06.709Z,102547.19
2023-04-02T10:01:39.403Z,102551.00
2023-04-02T10:04:26.959Z,102562.31
2023-04-02T10:06:57.857Z,102554.31
2023-04-02T10:09:33.260Z,102559.97
2023-04-02T10:12:02.253Z,102557.16
2023-04-02T10:14:39.682Z,102558.19
2023-04-02T10:17:27.824Z,102567.19
2023-04-02T10:19:58.721Z,102568.53
2023-04-02T10:22:28.522Z,102564.56
2023-04-02T10:24:54.982Z,102569.91
2023-04-02T10:27:29.785Z,102572.69
2023-04-02T10:30:15.301Z,102576.19
2023-04-02T10:32:56.313Z,102578.94
2023-04-02T10:35:48.140Z,102569.63
2023-04-02T10:38:20.461Z,102573.97
2023-04-02T10:41:11.605Z,102580.91
2023-04-02T10:44:18.950Z,102577.56
2023-04-02T10:47:02.005Z,102578.56
2023-04-02T10:49:50.679Z,102579.59
2023-04-02T10:52:26.590Z,102577.91
2023-04-02T10:54:57.137Z,102577.22
2023-04-02T10:57:38.108Z,102586.63
2023-04-02T11:00:11.033Z,102575.59
2023-04-02T11:02:56.257Z,102578.22
2023-04-02T11:05:31.391Z,102583.47
2023-04-02T11:08:07.370Z,102591.25
2023-04-02T11:10:38.559Z,102597.25
2023-04-02T11:13:28.395Z,102594.88
2023-04-02T11:15:55.051Z,102587.28
2023-04-02T11:18:39.932Z,102599.31
2023-04-02T11:21:08.577Z,102602.75
2023-04-02T11:23:39.606Z,102601.03
2023-04-02T11:26:27.784Z,102603.66
2023-04-02T11:29:18.978Z,102608.03
2023-04-02T11:31:46.313Z,102608.88
2023-04-02T11:34:14.831Z,102620.84
2023-04-02T11:36:50.209Z,102621.75
2023-04-02T11:39:46.487Z,102630.28
2023-04-02T11:42:18.733Z,102626.00
2023-04-02T11:44:45.325Z,102620.06
2023-04-02T11:47:19.787Z,102622.63
2023-04-02T11:49:55.451Z,102632.06
2023-04-02T11:52:25.497Z,102632.06
2023-04-02T11:55:05.726Z,102634.66
2023-04-02T11:57:44.190Z,102630.44
2023-04-02T12:00:44.482Z,102639.81
2023-04-02T12:03:13.974Z,102633.84
2023-04-02T12:05:48.614Z,102641.53
2023-04-02T12:08:27.666Z,102633.00
2023-04-02T12:10:58.035Z,102647.50
2023-04-02T12:13:39.813Z,102651.78
2023-04-02T12:16:16.805Z,102641.53
2023-04-02T12:18:53.944Z,102649.16
2023-04-02T12:21:24.510Z,102660.28
2023-04-02T12:23:54.452Z,102656.84
2023-04-02T12:26:30.089Z,102656.78
2023-04-02T12:29:26.581Z,102661.03
2023-04-02T12:31:58.396Z,102658.41
2023-04-02T12:34:27.902Z,102659.19
2023-04-02T12:37:03.499Z,102658.19
2023-04-02T12:39:34.407Z,102663.38
2023-04-02T12:42:01.596Z,102667.63
2023-04-02T12:44:30.322Z,102669.38
2023-04-02T12:46:58.655Z,102666.84
2023-04-02T12:49:31.158Z,102666.78
2023-04-02T12:51:58.232Z,102674.41
2023-04-02T12:54:24.860Z,102678.53
2023-04-02T12:56:51.384Z,102677.66
2023-04-02T12:59:28.794Z,102676.00
2023-04-02T13:02:00.859Z,102687.28
2023-04-02T13:04:28.259Z,102694.16
2023-04-02T13:06:55.928Z,102677.09
2023-04-02T13:09:29.972Z,102688.19
2023-04-02T13:11:56.501Z,102683.91
2023-04-02T13:14:25.061Z,102681.34
2023-04-02T13:16:51.583Z,102678.75
2023-04-02T13:19:18.049Z,102682.97
2023-04-02T13:21:45.885Z,102688.00
2023-04-02T13:24:27.724Z,102692.22
2023-04-02T13:26:57.491Z,102693.09
2023-04-02T13:29:27.037Z,102691.34
2023-04-02T13:31:56.863Z,102688.72
2023-04-02T13:34:23.853Z,102681.91
2023-04-02T13:36:50.398Z,102694.75
2023-04-02T13:39:16.952Z,102703.44
2023-04-02T13:41:45.931Z,102696.53
2023-04-02T13:44:30.060Z,102693.84
2023-04-02T13:46:57.093Z,102694.56
2023-04-02T13:49:24.683Z,102692.69
2023-04-02T13:51:53.735Z,102700.44
2023-04-02T13:54:37.279Z,102706.13
2023-04-02T13:57:03.773Z,102699.06
2023-04-02T13:59:30.316Z,102706.53
2023-04-02T14:02:03.920Z,102709.81
2023-04-02T14:04:36.491Z,102706.00
2023-04-02T14:07:12.100Z,102706.50
2023-04-02T14:09:53.878Z,102707.75
2023-04-02T14:12:56.682Z,102703.84
2023-04-02T14:15:36.019Z,102706.63
2023-04-02T14:18:31.917Z,102708.25
2023-04-02T14:21:17.163Z,102711.69
2023-04-02T14:24:04.778Z,102713.75
2023-04-02T14:26:39.537Z,102718.41
2023-04-02T14:29:10.881Z,102717.97
2023-04-02T14:32:05.141Z,102726.31
2023-04-02T14:35:00.373Z,102724.72
2023-04-02T14:37:39.286Z,102723.78
2023-04-02T14:40:39.698Z,102726.09
2023-04-02T14:43:30.122Z,102720.78
2023-04-02T14:46:00.158Z,102731.41
2023-04-02T14:48:52.013Z,102737.66
2023-04-02T14:51:37.076Z,102739.41
2023-04-02T14:54:13.097Z,102749.03
2023-04-02T14:56:47.264Z,102745.53
2023-04-02T14:59:19.545Z,102747.16
2023-04-02T15:01:49.295Z,102752.09
2023-04-02T15:04:37.255Z,102751.44
2023-04-02T15:07:13.994Z,102748.94
2023-04-02T15:09:53.614Z,102746.38
2023-04-02T15:12:21.698Z,102754.22
2023-04-02T15:14:55.280Z,102751.94
2023-04-02T15:17:21.861Z,102753.84
2023-04-02T15:19:51.487Z,102762.16
2023-04-02T15:22:33.015Z,102772.97
2023-04-02T15:25:16.952Z,102767.81
2023-04-02T15:28:33.052Z,102764.34
2023-04-02T15:31:03.632Z,102768.91
2023-04-02T15:34:08.014Z,102764.63
2023-04-02T15:36:55.168Z,102776.91
2023-04-02T15:39:37.027Z,102773.75
2023-04-02T15:42:23.767Z,102775.78
2023-04-02T15:45:12.093Z,102779.28
2023-04-02T15:47:46.594Z,102783.66
2023-04-02T15:50:35.193Z,102789.66
2023-04-02T15:53:40.496Z,102781.91
2023-04-02T15:56:39.879Z,102780.22
2023-04-02T15:59:28.206Z,102781.91
2023-04-02T16:02:12.996Z,102785.41
2023-04-02T16:05:01.238Z,102776.88
2023-04-02T16:07:49.521Z,102780.19
2023-04-02T16:10:41.937Z,102786.94
2023-04-02T16:13:28.335Z,102791.19
2023-04-02T16:16:14.434Z,102793.81
2023-04-02T16:19:06.301Z,102801.53
2023-04-02T16:22:10.790Z,102809.34
2023-04-02T16:24:37.192Z,102812.78
2023-04-02T16:27:14.923Z,102812.81
2023-04-02T16:29:55.834Z,102812.44
2023-04-02T16:32:43.284Z,102804.63
2023-04-02T16:35:43.104Z,102807.75
2023-04-02T16:38:34.817Z,102814.84
2023-04-02T16:41:28.570Z,102812.34
2023-04-02T16:44:20.016Z,102810.50
2023-04-02T16:47:19.384Z,102813.66
2023-04-02T16:50:07.246Z,102816.66
2023-04-02T16:52:51.107Z,102824.09
2023-04-02T16:55:35.844Z,102835.34
2023-04-02T16:58:20.384Z,102837.63
2023-04-02T17:01:00.982Z,102844.09
2023-04-02T17:03:58.381Z,102846.16
2023-04-02T17:06:57.208Z,102852.50
2023-04-02T17:09:26.572Z,102866.88
2023-04-02T17:12:04.379Z,102871.09
2023-04-02T17:14:34.665Z,102880.00
2023-04-02T17:17:02.315Z,102881.72
2023-04-02T17:19:30.316Z,102888.44
2023-04-02T17:22:01.177Z,102895.31
2023-04-02T17:24:41.364Z,102899.97
2023-04-02T17:27:32.497Z,102904.44
2023-04-02T17:30:04.255Z,102894.25
2023-04-02T17:32:33.171Z,102910.63
2023-04-02T17:35:15.742Z,102912.38
2023-04-02T17:37:52.417Z,102908.97
2023-04-02T17:40:45.062Z,102911.53
2023-04-02T17:43:11.467Z,102920.00
2023-04-02T17:45:51.418Z,102925.09
2023-04-02T17:48:26.096Z,102919.94
2023-04-02T17:51:23.159Z,102929.25
2023-04-02T17:54:09.409Z,102948.81
2023-04-02T17:56:38.879Z,102946.97
2023-04-02T17:59:14.336Z,102940.91
2023-04-02T18:01:50.678Z,102956.19
2023-04-02T18:04:40.466Z,102956.94
2023-04-02T18:07:35.231Z,102962.75
2023-04-02T18:10:15.288Z,102972.88
2023-04-02T18:12:59.826Z,102974.47
2023-04-02T18:15:47.223Z,102976.09
2023-04-02T18:18:45.848Z,102975.97
2023-04-02T18:21:24.080Z,102972.41
2023-04-02T18:23:54.288Z,102984.25
2023-04-02T18:26:44.097Z,102984.16
2023-04-02T18:29:45.955Z,102985.78
2023-04-02T18:32:24.758Z,102994.25
2023-04-02T18:35:17.191Z,103000.97
2023-04-02T18:38:21.450Z,103001.75
2023-04-02T18:41:02.606Z,103018.63
2023-04-02T18:44:06.135Z,103010.84
2023-04-02T18:46:39.951Z,103016.69
2023-04-02T18:49:06.404Z,103024.22
2023-04-02T18:51:38.420Z,103025.00
2023-04-02T18:54:20.295Z,103035.94
2023-04-02T18:56:46.853Z,103030.75
2023-04-02T18:59:37.942Z,103036.59
2023-04-02T19:02:44.316Z,103043.28
2023-04-02T19:05:39.085Z,103046.59
2023-04-02T19:08:40.226Z,103054.09
2023-04-02T19:11:13.359Z,103051.38
2023-04-02T19:13:39.820Z,103072.53
2023-04-02T19:16:34.129Z,103069.06
2023-04-02T19:19:23.702Z,103076.69
2023-04-02T19:21:59.109Z,103085.91
2023-04-02T19:24:39.512Z,103087.53
2023-04-02T19:27:24.199Z,103084.94
2023-04-02T19:30:15.399Z,103097.59
2023-04-02T19:33:16.057Z,103093.25
2023-04-02T19:35:48.145Z,103096.56
2023-04-02T19:38:22.810Z,103092.22
2023-04-02T19:41:00.879Z,103102.31
2023-04-02T19:43:27.461Z,103104.75
2023-04-02T19:45:54.640Z,103107.22
2023-04-02T19:48:25.055Z,103104.56
2023-04-02T19:50:51.656Z,103112.13
2023-04-02T19:53:18.472Z,103114.56
2023-04-02T19:55:45.663Z,103119.56
2023-04-02T19:58:26.000Z,103113.50
2023-04-02T20:00:52.440Z,103120.22
2023-04-02T20:03:19.016Z,103124.38
2023-04-02T20:05:46.022Z,103122.56
2023-04-02T20:08:12.802Z,103124.19
2023-04-02T20:10:39.425Z,103119.88
2023-04-02T20:13:05.936Z,103126.53
2023-04-02T20:15:32.469Z,103129.84
2023-04-02T20:17:59.000Z,103132.25
2023-04-02T20:20:25.578Z,103132.13
2023-04-02T20:22:51.962Z,103137.97
2023-04-02T20:25:21.331Z,103140.38
2023-04-02T20:27:47.801Z,103136.00
2023-04-02T20:30:14.319Z,103140.13
2023-04-02T20:32:41.376Z,103142.59
2023-04-02T20:35:08.520Z,103149.28
2023-04-02T20:37:35.101Z,103155.13
2023-04-02T20:40:01.953Z,103160.91
2023-04-02T20:42:28.612Z,103167.66
2023-04-02T20:44:55.421Z,103165.88
2023-04-02T20:47:22.102Z,103167.47
2023-04-02T20:49:50.275Z,103169.03
2023-04-02T20:52:16.726Z,103178.22
2023-04-02T20:54:43.491Z,103176.41
2023-04-02T20:57:09.889Z,103186.47
2023-04-02T20:59:36.308Z,103186.41
2023-04-02T21:02:02.709Z,103185.44
2023-04-02T21:04:29.139Z,103188.69
2023-04-02T21:06:57.079Z,103195.34
2023-04-02T21:09:23.958Z,103195.19
2023-04-02T21:11:50.571Z,103200.22
2023-04-02T21:14:17.995Z,103204.34
2023-04-02T21:16:44.994Z,103195.78
2023-04-02T21:19:11.493Z,103205.03
2023-04-02T21:21:40.381Z,103205.59
2023-04-02T21:24:09.296Z,103208.88
2023-04-02T21:26:38.380Z,103213.03
2023-04-02T21:29:06.243Z,103217.19
2023-04-02T21:31:37.977Z,103220.44
2023-04-02T21:34:06.074Z,103224.59
2023-04-02T21:36:39.552Z,103225.38
2023-04-02T21:39:17.270Z,103226.09
2023-04-02T21:41:46.467Z,103221.75
2023-04-02T21:44:14.735Z,103223.31
2023-04-02T21:46:42.648Z,103225.78
2023-04-02T21:49:11.329Z,103233.31
2023-04-02T21:51:40.111Z,103232.34
2023-04-02T21:54:06.728Z,103227.16
2023-04-02T21:56:36.425Z,103239.78
2023-04-02T21:59:04.700Z,103230.47
2023-04-02T22:01:33.560Z,103233.72
2023-04-02T22:04:02.239Z,103239.56
2023-04-02T22:06:30.942Z,103231.84
2023-04-02T22:09:02.520Z,103233.47
2023-04-02T22:11:35.657Z,103235.88
2023-04-02T22:14:03.554Z,103232.41
2023-04-02T22:16:32.252Z,103235.66
2023-04-02T22:19:01.912Z,103233.81
2023-04-02T22:21:30.442Z,103240.53
2023-04-02T22:23:59.557Z,103245.50
2023-04-02T22:26:27.395Z,103243.72
2023-04-02T22:28:53.889Z,103237.69
2023-04-02T22:31:23.485Z,103235.81
2023-04-02T22:33:51.786Z,103242.50
2023-04-02T22:36:20.133Z,103236.44
2023-04-02T22:38:46.624Z,103241.41
2023-04-02T22:41:14.037Z,103236.25
2023-04-02T22:43:42.805Z,103241.16
2023-04-02T22:46:12.286Z,103252.06
2023-04-02T22:48:41.657Z,103245.94
2023-04-02T22:51:10.427Z,103256.06
2023-04-02T22:53:38.598Z,103250.84
2023-04-02T22:56:13.306Z,103250.69
2023-04-02T22:58:40.521Z,103254.03
2023-04-02T23:01:19.342Z,103262.34
2023-04-02T23:03:45.890Z,103254.59
2023-04-02T23:06:15.025Z,103263.84
2023-04-02T23:08:41.489Z,103253.56
2023-04-02T23:11:11.052Z,103265.19
2023-04-02T23:13:38.120Z,103254.06
2023-04-02T23:16:07.535Z,103260.78
2023-04-02T23:18:38.002Z,103268.25
2023-04-02T23:21:05.733Z,103267.28
2023-04-02T23:23:33.153Z,103262.19
2023-04-02T23:26:14.134Z,103262.09
2023-04-02T23:28:40.837Z,103268.78
2023-04-02T23:31:11.001Z,103261.94
2023-04-02T23:33:37.504Z,103273.69
2023-04-02T23:36:11.797Z,103272.78
2023-04-02T23:38:38.218Z,103270.09
2023-04-02T23:41:04.832Z,103270.94
2023-04-02T23:43:31.570Z,103273.38
2023-04-02T23:45:58.214Z,103279.28
2023-04-02T23:48:24.813Z,103272.41
2023-04-02T23:50:51.335Z,103280.03
2023-04-02T23:53:18.728Z,103284.94
2023-04-02T23:55:45.883Z,103282.31
2023-04-02T23:58:12.420Z,103286.53
